sensor_id;sensor_type;location;lat;lon;timestamp;pressure;altitude;pressure_sealevel;temperature;humidity
61039;BME280;46919;45.816;3.104;2023-03-01T00:01:38;98312.94;;;-0.41;63.40
61039;BME280;46919;45.816;3.104;2023-03-01T00:04:04;98311.97;;;-0.40;62.97
61039;BME280;46919;45.816;3.104;2023-03-01T00:06:29;98309.00;;;-0.37;63.21
61039;BME280;46919;45.816;3.104;2023-03-01T00:08:55;98306.19;;;-0.35;63.09
61039;BME280;46919;45.816;3.104;2023-03-01T00:11:27;98301.59;;;-0.33;62.61
61039;BME280;46919;45.816;3.104;2023-03-01T00:13:56;98311.66;;;-0.37;62.73
61039;BME280;46919;45.816;3.104;2023-03-01T00:18:51;98304.44;;;-0.44;63.51
61039;BME280;46919;45.816;3.104;2023-03-01T00:21:20;98298.56;;;-0.48;63.64
61039;BME280;46919;45.816;3.104;2023-03-01T00:23:46;98306.38;;;-0.46;63.78
61039;BME280;46919;45.816;3.104;2023-03-01T00:26:14;98301.22;;;-0.38;63.52
61039;BME280;46919;45.816;3.104;2023-03-01T00:28:40;98307.50;;;-0.39;63.16
61039;BME280;46919;45.816;3.104;2023-03-01T00:31:20;98303.16;;;-0.40;63.28
61039;BME280;46919;45.816;3.104;2023-03-01T00:33:46;98306.53;;;-0.38;63.58
61039;BME280;46919;45.816;3.104;2023-03-01T00:36:13;98304.16;;;-0.41;63.70
61039;BME280;46919;45.816;3.104;2023-03-01T00:38:42;98310.59;;;-0.44;63.79
61039;BME280;46919;45.816;3.104;2023-03-01T00:41:09;98303.44;;;-0.43;63.68
61039;BME280;46919;45.816;3.104;2023-03-01T00:43:35;98302.47;;;-0.42;63.76
61039;BME280;46919;45.816;3.104;2023-03-01T00:46:09;98301.38;;;-0.49;64.30
61039;BME280;46919;45.816;3.104;2023-03-01T00:48:35;98299.66;;;-0.41;63.94
61039;BME280;46919;45.816;3.104;2023-03-01T00:51:14;98296.88;;;-0.39;63.98
61039;BME280;46919;45.816;3.104;2023-03-01T00:53:40;98305.81;;;-0.40;63.70
61039;BME280;46919;45.816;3.104;2023-03-01T00:56:07;98308.06;;;-0.45;64.10
61039;BME280;46919;45.816;3.104;2023-03-01T00:58:34;98310.72;;;-0.45;64.05
61039;BME280;46919;45.816;3.104;2023-03-01T01:01:00;98319.81;;;-0.48;64.04
61039;BME280;46919;45.816;3.104;2023-03-01T01:03:31;98312.97;;;-0.50;64.13
61039;BME280;46919;45.816;3.104;2023-03-01T01:05:57;98313.28;;;-0.53;64.43
61039;BME280;46919;45.816;3.104;2023-03-01T01:08:22;98312.41;;;-0.54;64.44
61039;BME280;46919;45.816;3.104;2023-03-01T01:10:47;98307.25;;;-0.56;64.72
61039;BME280;46919;45.816;3.104;2023-03-01T01:13:14;98304.44;;;-0.54;65.09
61039;BME280;46919;45.816;3.104;2023-03-01T01:15:39;98306.97;;;-0.52;64.82
61039;BME280;46919;45.816;3.104;2023-03-01T01:18:05;98313.94;;;-0.51;64.62
61039;BME280;46919;45.816;3.104;2023-03-01T01:20:31;98304.44;;;-0.54;64.89
61039;BME280;46919;45.816;3.104;2023-03-01T01:22:57;98300.13;;;-0.55;64.77
61039;BME280;46919;45.816;3.104;2023-03-01T01:25:22;98293.53;;;-0.51;65.12
61039;BME280;46919;45.816;3.104;2023-03-01T01:27:50;98292.03;;;-0.53;64.99
61039;BME280;46919;45.816;3.104;2023-03-01T01:30:16;98286.72;;;-0.53;64.90
61039;BME280;46919;45.816;3.104;2023-03-01T01:32:41;98283.50;;;-0.47;65.09
61039;BME280;46919;45.816;3.104;2023-03-01T01:35:07;98287.41;;;-0.51;65.21
61039;BME280;46919;45.816;3.104;2023-03-01T01:37:32;98289.09;;;-0.50;65.35
61039;BME280;46919;45.816;3.104;2023-03-01T01:39:59;98290.06;;;-0.51;65.27
61039;BME280;46919;45.816;3.104;2023-03-01T01:42:25;98295.50;;;-0.53;65.37
61039;BME280;46919;45.816;3.104;2023-03-01T01:47:51;98274.03;;;-0.60;65.25
61039;BME280;46919;45.816;3.104;2023-03-01T01:50:18;98269.53;;;-0.59;65.60
61039;BME280;46919;45.816;3.104;2023-03-01T01:52:44;98273.06;;;-0.59;65.34
61039;BME280;46919;45.816;3.104;2023-03-01T01:55:15;98272.03;;;-0.58;65.63
61039;BME280;46919;45.816;3.104;2023-03-01T01:57:48;98268.72;;;-0.60;65.86
61039;BME280;46919;45.816;3.104;2023-03-01T02:00:17;98261.72;;;-0.61;65.83
61039;BME280;46919;45.816;3.104;2023-03-01T02:02:45;98258.94;;;-0.69;65.93
61039;BME280;46919;45.816;3.104;2023-03-01T02:05:26;98270.44;;;-0.78;66.11
61039;BME280;46919;45.816;3.104;2023-03-01T02:07:54;98272.69;;;-0.83;65.80
61039;BME280;46919;45.816;3.104;2023-03-01T02:10:22;98270.19;;;-0.95;65.98
61039;BME280;46919;45.816;3.104;2023-03-01T02:12:48;98266.13;;;-0.99;66.47
61039;BME280;46919;45.816;3.104;2023-03-01T02:15:14;98264.63;;;-1.01;66.49
61039;BME280;46919;45.816;3.104;2023-03-01T02:17:41;98256.81;;;-1.03;66.49
61039;BME280;46919;45.816;3.104;2023-03-01T02:22:59;98255.84;;;-1.21;66.80
61039;BME280;46919;45.816;3.104;2023-03-01T02:25:36;98248.72;;;-1.21;66.63
61039;BME280;46919;45.816;3.104;2023-03-01T02:30:42;98237.84;;;-1.37;67.15
61039;BME280;46919;45.816;3.104;2023-03-01T02:33:29;98238.13;;;-1.50;67.00
61039;BME280;46919;45.816;3.104;2023-03-01T02:36:00;98238.28;;;-1.61;67.51
61039;BME280;46919;45.816;3.104;2023-03-01T02:38:27;98228.38;;;-1.69;67.88
61039;BME280;46919;45.816;3.104;2023-03-01T02:40:54;98233.53;;;-1.68;67.55
61039;BME280;46919;45.816;3.104;2023-03-01T02:43:23;98228.50;;;-1.71;67.85
61039;BME280;46919;45.816;3.104;2023-03-01T02:45:52;98222.53;;;-1.73;67.93
61039;BME280;46919;45.816;3.104;2023-03-01T02:48:19;98221.94;;;-1.76;68.07
61039;BME280;46919;45.816;3.104;2023-03-01T02:51:04;98216.34;;;-1.83;68.63
61039;BME280;46919;45.816;3.104;2023-03-01T02:55:58;98211.06;;;-1.83;68.81
61039;BME280;46919;45.816;3.104;2023-03-01T02:58:24;98209.97;;;-1.90;68.99
61039;BME280;46919;45.816;3.104;2023-03-01T03:00:50;98207.59;;;-1.93;68.69
61039;BME280;46919;45.816;3.104;2023-03-01T03:03:17;98199.06;;;-1.87;68.86
61039;BME280;46919;45.816;3.104;2023-03-01T03:05:45;98209.09;;;-1.81;68.75
61039;BME280;46919;45.816;3.104;2023-03-01T03:08:11;98200.06;;;-1.78;69.04
61039;BME280;46919;45.816;3.104;2023-03-01T03:10:40;98202.97;;;-1.72;69.05
61039;BME280;46919;45.816;3.104;2023-03-01T03:13:09;98204.38;;;-1.68;68.81
61039;BME280;46919;45.816;3.104;2023-03-01T03:15:35;98195.44;;;-1.67;69.30
61039;BME280;46919;45.816;3.104;2023-03-01T03:18:02;98205.63;;;-1.62;68.75
61039;BME280;46919;45.816;3.104;2023-03-01T03:20:28;98201.31;;;-1.53;69.07
61039;BME280;46919;45.816;3.104;2023-03-01T03:22:55;98196.00;;;-1.53;69.54
61039;BME280;46919;45.816;3.104;2023-03-01T03:25:21;98196.84;;;-1.53;69.48
61039;BME280;46919;45.816;3.104;2023-03-01T03:27:48;98191.13;;;-1.48;69.72
61039;BME280;46919;45.816;3.104;2023-03-01T03:30:17;98183.97;;;-1.48;69.58
61039;BME280;46919;45.816;3.104;2023-03-01T03:32:45;98186.94;;;-1.41;69.49
61039;BME280;46919;45.816;3.104;2023-03-01T03:35:19;98184.69;;;-1.36;69.11
61039;BME280;46919;45.816;3.104;2023-03-01T03:37:44;98180.59;;;-1.30;69.06
61039;BME280;46919;45.816;3.104;2023-03-01T03:40:30;98173.91;;;-1.24;69.06
61039;BME280;46919;45.816;3.104;2023-03-01T03:42:56;98170.00;;;-1.20;69.06
61039;BME280;46919;45.816;3.104;2023-03-01T03:45:22;98164.41;;;-1.17;69.06
61039;BME280;46919;45.816;3.104;2023-03-01T03:47:48;98160.78;;;-1.16;69.01
61039;BME280;46919;45.816;3.104;2023-03-01T03:50:14;98160.47;;;-1.13;69.12
61039;BME280;46919;45.816;3.104;2023-03-01T03:52:42;98157.69;;;-1.12;69.05
61039;BME280;46919;45.816;3.104;2023-03-01T03:55:10;98157.00;;;-1.14;69.19
61039;BME280;46919;45.816;3.104;2023-03-01T03:57:40;98163.41;;;-1.16;68.84
61039;BME280;46919;45.816;3.104;2023-03-01T04:00:09;98155.19;;;-1.13;69.22
61039;BME280;46919;45.816;3.104;2023-03-01T04:02:39;98152.13;;;-1.18;69.56
61039;BME280;46919;45.816;3.104;2023-03-01T04:05:06;98159.41;;;-1.20;69.60
61039;BME280;46919;45.816;3.104;2023-03-01T04:07:31;98154.50;;;-1.15;69.33
61039;BME280;46919;45.816;3.104;2023-03-01T04:09:57;98162.16;;;-1.12;69.09
61039;BME280;46919;45.816;3.104;2023-03-01T04:12:22;98159.91;;;-1.07;69.08
61039;BME280;46919;45.816;3.104;2023-03-01T04:14:48;98155.44;;;-1.06;68.81
61039;BME280;46919;45.816;3.104;2023-03-01T04:17:14;98155.28;;;-1.05;68.74
61039;BME280;46919;45.816;3.104;2023-03-01T04:19:39;98151.53;;;-1.02;68.99
61039;BME280;46919;45.816;3.104;2023-03-01T04:22:04;98156.97;;;-1.04;69.20
61039;BME280;46919;45.816;3.104;2023-03-01T04:24:37;98153.50;;;-1.04;69.12
61039;BME280;46919;45.816;3.104;2023-03-01T04:27:02;98148.72;;;-1.01;69.60
61039;BME280;46919;45.816;3.104;2023-03-01T04:29:28;98144.38;;;-1.02;69.25
61039;BME280;46919;45.816;3.104;2023-03-01T04:31:53;98134.63;;;-1.01;69.61
61039;BME280;46919;45.816;3.104;2023-03-01T04:34:19;98135.16;;;-0.98;69.28
61039;BME280;46919;45.816;3.104;2023-03-01T04:36:44;98137.97;;;-0.99;69.71
61039;BME280;46919;45.816;3.104;2023-03-01T04:39:10;98138.13;;;-1.01;69.69
61039;BME280;46919;45.816;3.104;2023-03-01T04:41:39;98136.44;;;-1.02;69.65
61039;BME280;46919;45.816;3.104;2023-03-01T04:44:08;98142.31;;;-0.98;70.17
61039;BME280;46919;45.816;3.104;2023-03-01T04:46:35;98140.47;;;-0.98;70.11
61039;BME280;46919;45.816;3.104;2023-03-01T04:49:01;98135.31;;;-0.99;69.70
61039;BME280;46919;45.816;3.104;2023-03-01T04:51:27;98136.28;;;-1.00;70.17
61039;BME280;46919;45.816;3.104;2023-03-01T04:53:52;98130.72;;;-1.07;70.37
61039;BME280;46919;45.816;3.104;2023-03-01T04:56:18;98136.63;;;-1.13;70.60
61039;BME280;46919;45.816;3.104;2023-03-01T04:58:44;98133.66;;;-1.10;70.80
61039;BME280;46919;45.816;3.104;2023-03-01T05:01:17;98141.22;;;-1.15;70.61
61039;BME280;46919;45.816;3.104;2023-03-01T05:03:45;98146.97;;;-1.20;71.08
61039;BME280;46919;45.816;3.104;2023-03-01T05:06:11;98148.22;;;-1.24;71.26
61039;BME280;46919;45.816;3.104;2023-03-01T05:08:38;98148.78;;;-1.20;70.96
61039;BME280;46919;45.816;3.104;2023-03-01T05:11:04;98139.31;;;-1.23;70.93
61039;BME280;46919;45.816;3.104;2023-03-01T05:13:30;98147.00;;;-1.30;71.20
61039;BME280;46919;45.816;3.104;2023-03-01T05:15:58;98143.81;;;-1.33;71.20
61039;BME280;46919;45.816;3.104;2023-03-01T05:18:25;98144.91;;;-1.36;71.73
61039;BME280;46919;45.816;3.104;2023-03-01T05:20:54;98149.94;;;-1.33;71.62
61039;BME280;46919;45.816;3.104;2023-03-01T05:23:22;98150.50;;;-1.39;72.04
61039;BME280;46919;45.816;3.104;2023-03-01T05:25:48;98146.88;;;-1.38;71.96
61039;BME280;46919;45.816;3.104;2023-03-01T05:28:14;98158.31;;;-1.37;72.12
61039;BME280;46919;45.816;3.104;2023-03-01T05:30:40;98146.75;;;-1.36;72.00
61039;BME280;46919;45.816;3.104;2023-03-01T05:33:07;98146.31;;;-1.32;71.63
61039;BME280;46919;45.816;3.104;2023-03-01T05:35:39;98147.69;;;-1.28;71.69
61039;BME280;46919;45.816;3.104;2023-03-01T05:38:06;98142.38;;;-1.28;72.00
61039;BME280;46919;45.816;3.104;2023-03-01T05:40:33;98142.22;;;-1.26;71.86
61039;BME280;46919;45.816;3.104;2023-03-01T05:42:59;98147.69;;;-1.28;71.71
61039;BME280;46919;45.816;3.104;2023-03-01T05:45:26;98144.06;;;-1.26;71.76
61039;BME280;46919;45.816;3.104;2023-03-01T05:47:52;98149.09;;;-1.33;71.85
61039;BME280;46919;45.816;3.104;2023-03-01T05:50:26;98145.75;;;-1.35;72.28
61039;BME280;46919;45.816;3.104;2023-03-01T05:53:01;98144.63;;;-1.33;72.22
61039;BME280;46919;45.816;3.104;2023-03-01T05:55:29;98139.91;;;-1.39;72.26
61039;BME280;46919;45.816;3.104;2023-03-01T05:57:58;98133.19;;;-1.43;72.42
61039;BME280;46919;45.816;3.104;2023-03-01T06:00:24;98135.84;;;-1.43;72.40
61039;BME280;46919;45.816;3.104;2023-03-01T06:02:50;98130.16;;;-1.48;73.22
61039;BME280;46919;45.816;3.104;2023-03-01T06:05:17;98131.41;;;-1.42;72.54
61039;BME280;46919;45.816;3.104;2023-03-01T06:07:43;98126.38;;;-1.46;72.59
61039;BME280;46919;45.816;3.104;2023-03-01T06:10:10;98139.38;;;-1.52;73.43
61039;BME280;46919;45.816;3.104;2023-03-01T06:12:38;98129.59;;;-1.52;73.59
61039;BME280;46919;45.816;3.104;2023-03-01T06:15:04;98128.19;;;-1.46;72.90
61039;BME280;46919;45.816;3.104;2023-03-01T06:17:32;98122.88;;;-1.46;73.34
61039;BME280;46919;45.816;3.104;2023-03-01T06:19:58;98124.00;;;-1.49;73.69
61039;BME280;46919;45.816;3.104;2023-03-01T06:22:23;98125.53;;;-1.46;73.43
61039;BME280;46919;45.816;3.104;2023-03-01T06:24:49;98127.34;;;-1.47;73.64
61039;BME280;46919;45.816;3.104;2023-03-01T06:27:15;98118.97;;;-1.42;73.66
61039;BME280;46919;45.816;3.104;2023-03-01T06:29:41;98129.56;;;-1.42;73.47
61039;BME280;46919;45.816;3.104;2023-03-01T06:32:06;98131.41;;;-1.42;73.53
61039;BME280;46919;45.816;3.104;2023-03-01T06:34:33;98128.03;;;-1.35;73.44
61039;BME280;46919;45.816;3.104;2023-03-01T06:36:58;98130.13;;;-1.38;73.22
61039;BME280;46919;45.816;3.104;2023-03-01T06:39:24;98131.53;;;-1.44;73.85
61039;BME280;46919;45.816;3.104;2023-03-01T06:41:49;98132.22;;;-1.42;73.75
61039;BME280;46919;45.816;3.104;2023-03-01T06:44:15;98122.31;;;-1.40;73.32
61039;BME280;46919;45.816;3.104;2023-03-01T06:46:40;98124.56;;;-1.45;73.76
61039;BME280;46919;45.816;3.104;2023-03-01T06:49:06;98123.59;;;-1.44;73.66
61039;BME280;46919;45.816;3.104;2023-03-01T06:51:35;98122.31;;;-1.40;73.81
61039;BME280;46919;45.816;3.104;2023-03-01T06:54:03;98126.94;;;-1.42;73.87
61039;BME280;46919;45.816;3.104;2023-03-01T06:56:29;98129.44;;;-1.40;73.29
61039;BME280;46919;45.816;3.104;2023-03-01T06:58:54;98129.19;;;-1.47;73.86
61039;BME280;46919;45.816;3.104;2023-03-01T07:01:20;98125.38;;;-1.44;74.03
61039;BME280;46919;45.816;3.104;2023-03-01T07:03:45;98129.44;;;-1.40;73.78
61039;BME280;46919;45.816;3.104;2023-03-01T07:06:11;98121.34;;;-1.39;74.25
61039;BME280;46919;45.816;3.104;2023-03-01T07:08:36;98117.56;;;-1.36;73.81
61039;BME280;46919;45.816;3.104;2023-03-01T07:11:02;98121.31;;;-1.29;73.68
61039;BME280;46919;45.816;3.104;2023-03-01T07:13:28;98123.81;;;-1.28;73.11
61039;BME280;46919;45.816;3.104;2023-03-01T07:15:54;98120.88;;;-1.24;73.51
61039;BME280;46919;45.816;3.104;2023-03-01T07:18:19;98126.19;;;-1.24;73.48
61039;BME280;46919;45.816;3.104;2023-03-01T07:20:44;98124.22;;;-1.22;73.62
61039;BME280;46919;45.816;3.104;2023-03-01T07:23:10;98123.63;;;-1.16;73.18
61039;BME280;46919;45.816;3.104;2023-03-01T07:25:35;98125.75;;;-1.20;72.87
61039;BME280;46919;45.816;3.104;2023-03-01T07:28:01;98126.72;;;-1.21;73.73
61039;BME280;46919;45.816;3.104;2023-03-01T07:30:26;98119.19;;;-1.16;73.59
61039;BME280;46919;45.816;3.104;2023-03-01T07:32:54;98113.84;;;-1.06;73.09
61039;BME280;46919;45.816;3.104;2023-03-01T07:35:20;98112.84;;;-1.05;72.87
61039;BME280;46919;45.816;3.104;2023-03-01T07:37:46;98114.63;;;-0.96;72.70
61039;BME280;46919;45.816;3.104;2023-03-01T07:40:12;98112.84;;;-0.95;72.65
61039;BME280;46919;45.816;3.104;2023-03-01T07:42:37;98119.25;;;-0.98;72.83
61039;BME280;46919;45.816;3.104;2023-03-01T07:45:05;98115.91;;;-1.00;73.06
61039;BME280;46919;45.816;3.104;2023-03-01T07:47:30;98109.56;;;-0.89;73.14
61039;BME280;46919;45.816;3.104;2023-03-01T07:49:56;98101.44;;;-0.78;72.02
61039;BME280;46919;45.816;3.104;2023-03-01T07:52:21;98101.13;;;-0.75;72.27
61039;BME280;46919;45.816;3.104;2023-03-01T07:54:47;98101.81;;;-0.73;72.38
61039;BME280;46919;45.816;3.104;2023-03-01T07:57:12;98103.63;;;-0.73;72.25
61039;BME280;46919;45.816;3.104;2023-03-01T07:59:38;98101.13;;;-0.75;72.31
61039;BME280;46919;45.816;3.104;2023-03-01T08:02:03;98103.09;;;-0.77;72.63
61039;BME280;46919;45.816;3.104;2023-03-01T08:04:29;98099.78;;;-0.61;71.81
61039;BME280;46919;45.816;3.104;2023-03-01T08:06:55;98099.72;;;-0.51;71.90
61039;BME280;46919;45.816;3.104;2023-03-01T08:09:20;98097.06;;;-0.51;71.32
61039;BME280;46919;45.816;3.104;2023-03-01T08:11:46;98092.31;;;-0.47;71.53
61039;BME280;46919;45.816;3.104;2023-03-01T08:14:11;98091.00;;;-0.43;71.85
61039;BME280;46919;45.816;3.104;2023-03-01T08:16:37;98086.13;;;-0.38;71.36
61039;BME280;46919;45.816;3.104;2023-03-01T08:19:09;98092.03;;;-0.26;71.80
61039;BME280;46919;45.816;3.104;2023-03-01T08:21:35;98089.00;;;-0.13;70.55
61039;BME280;46919;45.816;3.104;2023-03-01T08:24:03;98088.31;;;-0.15;71.03
61039;BME280;46919;45.816;3.104;2023-03-01T08:26:29;98088.16;;;-0.14;70.66
61039;BME280;46919;45.816;3.104;2023-03-01T08:28:54;98083.38;;;-0.10;69.82
61039;BME280;46919;45.816;3.104;2023-03-01T08:31:22;98089.75;;;-0.03;70.65
61039;BME280;46919;45.816;3.104;2023-03-01T08:33:50;98085.50;;;0.04;70.20
61039;BME280;46919;45.816;3.104;2023-03-01T08:36:21;98075.94;;;0.11;69.88
61039;BME280;46919;45.816;3.104;2023-03-01T08:38:47;98078.03;;;0.08;69.97
61039;BME280;46919;45.816;3.104;2023-03-01T08:41:13;98085.50;;;0.04;70.46
61039;BME280;46919;45.816;3.104;2023-03-01T08:43:39;98089.81;;;0.05;70.09
61039;BME280;46919;45.816;3.104;2023-03-01T08:46:05;98081.16;;;0.03;70.19
61039;BME280;46919;45.816;3.104;2023-03-01T08:48:30;98083.50;;;0.06;69.84
61039;BME280;46919;45.816;3.104;2023-03-01T08:50:56;98082.44;;;0.17;69.84
61039;BME280;46919;45.816;3.104;2023-03-01T08:53:21;98077.31;;;0.42;69.37
61039;BME280;46919;45.816;3.104;2023-03-01T08:55:47;98070.66;;;0.64;69.01
61039;BME280;46919;45.816;3.104;2023-03-01T08:58:12;98078.34;;;0.75;68.43
61039;BME280;46919;45.816;3.104;2023-03-01T09:00:38;98064.69;;;0.70;68.62
61039;BME280;46919;45.816;3.104;2023-03-01T09:03:03;98065.38;;;0.72;69.18
61039;BME280;46919;45.816;3.104;2023-03-01T09:05:33;98072.38;;;0.73;68.14
61039;BME280;46919;45.816;3.104;2023-03-01T09:07:59;98063.41;;;0.82;68.56
61039;BME280;46919;45.816;3.104;2023-03-01T09:10:25;98065.28;;;0.90;68.13
61039;BME280;46919;45.816;3.104;2023-03-01T09:12:51;98067.16;;;0.98;68.07
61039;BME280;46919;45.816;3.104;2023-03-01T09:15:16;98061.25;;;1.20;67.25
61039;BME280;46919;45.816;3.104;2023-03-01T09:17:42;98058.91;;;1.17;67.44
61039;BME280;46919;45.816;3.104;2023-03-01T09:20:08;98062.59;;;1.24;67.17
61039;BME280;46919;45.816;3.104;2023-03-01T09:22:34;98063.97;;;1.29;66.72
61039;BME280;46919;45.816;3.104;2023-03-01T09:25:00;98055.91;;;1.20;67.21
61039;BME280;46919;45.816;3.104;2023-03-01T09:27:25;98051.81;;;1.34;66.94
61039;BME280;46919;45.816;3.104;2023-03-01T09:29:51;98043.69;;;1.52;67.03
61039;BME280;46919;45.816;3.104;2023-03-01T09:32:16;98053.53;;;1.52;66.17
61039;BME280;46919;45.816;3.104;2023-03-01T09:34:42;98040.75;;;1.72;66.02
61039;BME280;46919;45.816;3.104;2023-03-01T09:37:26;98038.56;;;1.59;65.87
61039;BME280;46919;45.816;3.104;2023-03-01T09:39:52;98037.72;;;1.58;65.17
61039;BME280;46919;45.816;3.104;2023-03-01T09:42:17;98034.56;;;1.55;65.10
61039;BME280;46919;45.816;3.104;2023-03-01T09:44:49;98038.88;;;1.56;64.84
61039;BME280;46919;45.816;3.104;2023-03-01T09:47:35;98029.88;;;1.57;65.21
61039;BME280;46919;45.816;3.104;2023-03-01T09:50:14;98028.41;;;1.62;64.19
61039;BME280;46919;45.816;3.104;2023-03-01T09:53:01;98025.25;;;1.84;63.40
61039;BME280;46919;45.816;3.104;2023-03-01T09:55:34;98021.75;;;1.83;63.47
61039;BME280;46919;45.816;3.104;2023-03-01T09:58:25;98012.78;;;1.84;63.94
61039;BME280;46919;45.816;3.104;2023-03-01T10:00:53;98016.75;;;1.80;63.74
61039;BME280;46919;45.816;3.104;2023-03-01T10:03:44;98018.28;;;1.83;62.24
61039;BME280;46919;45.816;3.104;2023-03-01T10:06:21;98011.09;;;1.99;62.06
61039;BME280;46919;45.816;3.104;2023-03-01T10:09:13;97997.25;;;2.12;60.94
61039;BME280;46919;45.816;3.104;2023-03-01T10:11:55;97997.44;;;2.19;62.26
61039;BME280;46919;45.816;3.104;2023-03-01T10:17:03;98001.25;;;2.25;61.64
61039;BME280;46919;45.816;3.104;2023-03-01T10:21:59;98007.97;;;2.77;60.47
61039;BME280;46919;45.816;3.104;2023-03-01T10:24:26;97992.22;;;2.98;60.24
61039;BME280;46919;45.816;3.104;2023-03-01T10:26:58;97993.72;;;2.93;59.81
61039;BME280;46919;45.816;3.104;2023-03-01T10:29:41;97995.66;;;2.67;60.07
61039;BME280;46919;45.816;3.104;2023-03-01T10:32:10;97989.72;;;2.32;60.88
61039;BME280;46919;45.816;3.104;2023-03-01T10:34:36;97988.56;;;2.27;61.28
61039;BME280;46919;45.816;3.104;2023-03-01T10:37:16;97980.41;;;2.37;61.06
61039;BME280;46919;45.816;3.104;2023-03-01T10:42:39;97980.69;;;2.50;60.55
61039;BME280;46919;45.816;3.104;2023-03-01T10:50:29;97979.63;;;2.67;60.22
61039;BME280;46919;45.816;3.104;2023-03-01T10:53:00;97963.94;;;2.72;60.07
61039;BME280;46919;45.816;3.104;2023-03-01T10:55:35;97966.94;;;2.69;60.11
61039;BME280;46919;45.816;3.104;2023-03-01T10:58:20;97967.66;;;2.63;60.09
61039;BME280;46919;45.816;3.104;2023-03-01T11:01:00;97962.25;;;2.80;60.38
61039;BME280;46919;45.816;3.104;2023-03-01T11:03:27;97966.75;;;2.79;59.54
61039;BME280;46919;45.816;3.104;2023-03-01T11:08:39;97960.53;;;2.87;60.37
61039;BME280;46919;45.816;3.104;2023-03-01T11:11:14;97961.56;;;3.17;59.37
61039;BME280;46919;45.816;3.104;2023-03-01T11:14:01;97954.31;;;3.26;59.37
61039;BME280;46919;45.816;3.104;2023-03-01T11:16:36;97955.09;;;3.58;58.75
61039;BME280;46919;45.816;3.104;2023-03-01T11:21:38;97948.06;;;3.65;58.60
61039;BME280;46919;45.816;3.104;2023-03-01T11:24:09;97947.38;;;4.01;58.19
61039;BME280;46919;45.816;3.104;2023-03-01T11:26:39;97948.66;;;4.43;57.38
61039;BME280;46919;45.816;3.104;2023-03-01T11:29:26;97943.22;;;4.66;56.64
61039;BME280;46919;45.816;3.104;2023-03-01T11:31:55;97942.06;;;4.76;56.57
61039;BME280;46919;45.816;3.104;2023-03-01T11:37:26;97927.50;;;5.15;55.57
61039;BME280;46919;45.816;3.104;2023-03-01T11:39:59;97926.69;;;5.36;54.63
61039;BME280;46919;45.816;3.104;2023-03-01T11:42:42;97923.56;;;5.32;54.48
61039;BME280;46919;45.816;3.104;2023-03-01T11:45:10;97928.47;;;5.50;54.30
61039;BME280;46919;45.816;3.104;2023-03-01T11:50:46;97918.84;;;4.98;54.59
61039;BME280;46919;45.816;3.104;2023-03-01T11:56:03;97911.56;;;4.92;55.79
61039;BME280;46919;45.816;3.104;2023-03-01T12:01:09;97905.09;;;5.01;54.78
61039;BME280;46919;45.816;3.104;2023-03-01T12:36:20;97850.19;;;7.08;49.47
61039;BME280;46919;45.816;3.104;2023-03-01T12:46:52;97842.59;;;7.58;50.61
61039;BME280;46919;45.816;3.104;2023-03-01T12:49:34;97836.38;;;7.71;47.34
61039;BME280;46919;45.816;3.104;2023-03-01T12:52:23;97829.31;;;7.97;49.09
61039;BME280;46919;45.816;3.104;2023-03-01T12:54:54;97825.41;;;7.86;47.07
61039;BME280;46919;45.816;3.104;2023-03-01T12:57:30;97826.03;;;7.95;50.22
61039;BME280;46919;45.816;3.104;2023-03-01T13:02:47;97823.16;;;8.62;46.05
61039;BME280;46919;45.816;3.104;2023-03-01T13:08:20;97811.91;;;9.10;46.87
61039;BME280;46919;45.816;3.104;2023-03-01T13:10:58;97815.56;;;9.22;47.78
61039;BME280;46919;45.816;3.104;2023-03-01T13:13:26;97811.56;;;9.32;47.81
61039;BME280;46919;45.816;3.104;2023-03-01T13:15:53;97801.88;;;9.49;46.94
61039;BME280;46919;45.816;3.104;2023-03-01T13:20:48;97800.19;;;9.30;46.43
61039;BME280;46919;45.816;3.104;2023-03-01T13:34:00;97787.31;;;9.00;45.98
61039;BME280;46919;45.816;3.104;2023-03-01T13:49:41;97780.31;;;8.54;44.98
61039;BME280;46919;45.816;3.104;2023-03-01T13:55:06;97770.06;;;8.10;44.75
61039;BME280;46919;45.816;3.104;2023-03-01T13:57:40;97766.59;;;8.03;44.74
61039;BME280;46919;45.816;3.104;2023-03-01T14:03:09;97771.16;;;7.96;44.88
61039;BME280;46919;45.816;3.104;2023-03-01T14:05:35;97766.03;;;7.74;44.73
61039;BME280;46919;45.816;3.104;2023-03-01T14:08:05;97767.06;;;7.73;44.99
61039;BME280;46919;45.816;3.104;2023-03-01T14:13:32;97765.63;;;7.77;44.92
61039;BME280;46919;45.816;3.104;2023-03-01T14:18:46;97773.69;;;7.77;44.73
61039;BME280;46919;45.816;3.104;2023-03-01T14:21:17;97769.78;;;7.60;44.90
61039;BME280;46919;45.816;3.104;2023-03-01T14:23:43;97774.75;;;7.63;44.66
61039;BME280;46919;45.816;3.104;2023-03-01T14:26:08;97767.50;;;7.43;45.01
61039;BME280;46919;45.816;3.104;2023-03-01T14:28:38;97766.66;;;7.50;45.57
61039;BME280;46919;45.816;3.104;2023-03-01T14:31:45;97768.72;;;7.74;44.93
61039;BME280;46919;45.816;3.104;2023-03-01T14:34:19;97772.00;;;7.96;44.65
61039;BME280;46919;45.816;3.104;2023-03-01T14:36:44;97767.03;;;7.80;45.33
61039;BME280;46919;45.816;3.104;2023-03-01T14:39:18;97776.78;;;7.74;45.19
61039;BME280;46919;45.816;3.104;2023-03-01T14:41:44;97776.19;;;7.32;46.05
61039;BME280;46919;45.816;3.104;2023-03-01T14:44:21;97781.59;;;7.46;45.81
61039;BME280;46919;45.816;3.104;2023-03-01T14:46:52;97767.50;;;7.17;45.85
61039;BME280;46919;45.816;3.104;2023-03-01T14:49:21;97777.44;;;7.36;45.92
61039;BME280;46919;45.816;3.104;2023-03-01T14:52:07;97762.94;;;7.77;45.56
61039;BME280;46919;45.816;3.104;2023-03-01T14:54:51;97766.19;;;7.93;45.22
61039;BME280;46919;45.816;3.104;2023-03-01T14:57:22;97763.75;;;7.78;45.76
61039;BME280;46919;45.816;3.104;2023-03-01T14:59:50;97757.50;;;7.91;45.96
61039;BME280;46919;45.816;3.104;2023-03-01T15:02:19;97763.16;;;7.69;45.99
61039;BME280;46919;45.816;3.104;2023-03-01T15:04:54;97770.41;;;7.35;45.94
61039;BME280;46919;45.816;3.104;2023-03-01T15:07:22;97769.78;;;7.06;46.71
61039;BME280;46919;45.816;3.104;2023-03-01T15:09:51;97769.78;;;6.93;47.19
61039;BME280;46919;45.816;3.104;2023-03-01T15:12:38;97770.41;;;7.29;46.66
61039;BME280;46919;45.816;3.104;2023-03-01T15:15:36;97772.88;;;7.43;46.62
61039;BME280;46919;45.816;3.104;2023-03-01T15:18:11;97772.47;;;7.13;47.14
61039;BME280;46919;45.816;3.104;2023-03-01T15:20:38;97778.19;;;6.77;47.77
61039;BME280;46919;45.816;3.104;2023-03-01T15:23:04;97778.09;;;6.50;47.90